Time;durP1;ratioP1;P1;durP2;ratioP2;P2;SDS_P1;SDS_P2;PMS_P1;PMS_P2;Temp;Humidity;BMP_temperature;BMP_pressure;BME280_temperature;BME280_humidity;BME280_pressure;Samples;Min_cycle;Max_cycle;Signal;HPM_P1;HPM_P2
2021/01/12 00:00:54;;;;;;;16.80;14.03;;;;;;;0.72;50.71;95748.22;6940357;28;20257;-75
2021/01/12 00:04:14;;;;;;;16.53;13.77;;;;;;;0.85;50.57;95741.56;6949746;28;20226;-75
2021/01/12 00:07:35;;;;;;;16.53;13.80;;;;;;;0.97;50.67;95745.38;6966611;28;20236;-75
2021/01/12 00:10:55;;;;;;;18.47;14.27;;;;;;;1.05;50.35;95745.06;6958173;28;20229;-75
2021/01/12 00:14:36;;;;;;;16.23;12.97;;;;;;;1.14;50.48;95755.97;6948781;28;20244;-74
2021/01/12 00:17:59;;;;;;;18.70;12.90;;;;;;;1.24;50.29;95753.78;6936505;28;20222;-73
2021/01/12 00:21:25;;;;;;;18.80;14.33;;;;;;;1.25;50.35;95755.50;6953237;28;20222;-70
2021/01/12 00:24:49;;;;;;;15.97;12.90;;;;;;;1.23;50.79;95752.94;6942636;28;20224;-73
2021/01/12 00:28:09;;;;;;;17.87;13.30;;;;;;;1.26;50.67;95752.78;6956199;28;20227;-72
2021/01/12 00:31:30;;;;;;;17.83;13.37;;;;;;;1.32;50.73;95753.44;6952240;28;20215;-76
2021/01/12 00:34:51;;;;;;;16.17;12.30;;;;;;;1.38;50.89;95748.78;6958247;28;20206;-74
2021/01/12 00:38:12;;;;;;;17.23;12.90;;;;;;;1.45;50.98;95750.22;6935896;28;20227;-74
2021/01/12 00:41:36;;;;;;;20.47;15.27;;;;;;;1.52;50.95;95735.91;6940282;28;20207;-74
2021/01/12 00:44:56;;;;;;;15.87;13.00;;;;;;;1.50;50.70;95731.69;6938447;28;20222;-73
2021/01/12 00:48:17;;;;;;;17.70;13.97;;;;;;;1.52;50.75;95720.22;6947676;28;20226;-74
2021/01/12 00:51:41;;;;;;;15.27;12.50;;;;;;;1.57;50.69;95727.84;6935746;28;20234;-74
2021/01/12 00:55:01;;;;;;;15.07;12.27;;;;;;;1.64;50.53;95727.50;6937158;28;20265;-74
2021/01/12 00:58:26;;;;;;;16.17;12.83;;;;;;;1.69;50.37;95722.06;6952234;28;20207;-75
2021/01/12 01:01:48;;;;;;;17.10;13.30;;;;;;;1.70;50.79;95711.53;6941339;28;20264;-74
2021/01/12 01:05:09;;;;;;;14.73;11.97;;;;;;;1.77;50.58;95705.97;6948209;28;20239;-74
2021/01/12 01:08:29;;;;;;;13.60;11.27;;;;;;;1.81;50.75;95708.38;6965942;28;20234;-74
2021/01/12 01:11:52;;;;;;;14.07;11.90;;;;;;;1.86;50.79;95710.81;6947793;28;20294;-74
2021/01/12 01:15:16;;;;;;;14.63;11.23;;;;;;;1.87;50.37;95694.16;6950853;28;20260;-74
2021/01/12 01:18:39;;;;;;;12.67;10.00;;;;;;;1.70;50.22;95693.19;6941708;28;20257;-74
2021/01/12 01:21:59;;;;;;;12.30;10.60;;;;;;;1.63;50.46;95683.94;6935564;28;20213;-74
2021/01/12 01:25:20;;;;;;;13.13;10.53;;;;;;;1.67;50.67;95687.25;6936427;28;20594;-74
2021/01/12 01:28:42;;;;;;;13.83;10.83;;;;;;;1.75;50.71;95686.88;6959009;28;20580;-74
2021/01/12 01:32:03;;;;;;;14.47;11.83;;;;;;;1.79;50.76;95681.44;6916883;28;20258;-75
2021/01/12 01:35:24;;;;;;;13.47;10.40;;;;;;;1.81;50.45;95676.94;6948456;28;20215;-74
2021/01/12 01:38:44;;;;;;;12.93;10.17;;;;;;;1.75;50.56;95687.75;6956341;28;20717;-74
2021/01/12 01:42:05;;;;;;;14.87;10.73;;;;;;;1.73;51.01;95679.09;6935831;28;20215;-74
2021/01/12 01:45:27;;;;;;;13.17;10.83;;;;;;;1.74;50.56;95680.81;6935341;28;20297;-74
2021/01/12 01:48:48;;;;;;;10.57;8.97;;;;;;;1.70;50.59;95684.50;6962726;28;20238;-74
2021/01/12 01:52:09;;;;;;;12.77;9.70;;;;;;;1.75;50.81;95692.97;6961218;28;20222;-74
2021/01/12 01:55:29;;;;;;;11.67;10.03;;;;;;;1.78;50.92;95690.19;6959309;28;20270;-75
2021/01/12 01:58:50;;;;;;;10.73;8.67;;;;;;;1.84;50.95;95697.78;6934767;28;20221;-74
2021/01/12 02:02:10;;;;;;;10.13;8.40;;;;;;;1.89;50.98;95692.31;6965156;28;20645;-74
2021/01/12 02:05:32;;;;;;;10.03;8.20;;;;;;;1.92;51.10;95690.38;6940136;28;20217;-74
2021/01/12 02:09:10;;;;;;;13.57;9.17;;;;;;;1.93;51.79;95678.13;6954287;28;20216;-74
2021/01/12 02:12:38;;;;;;;9.50;7.97;;;;;;;1.95;51.65;95676.31;6965887;28;20223;-74
2021/01/12 02:16:00;;;;;;;9.47;7.50;;;;;;;1.89;51.48;95672.22;6943830;28;20637;-74
2021/01/12 02:19:22;;;;;;;10.77;8.00;;;;;;;1.90;51.95;95668.69;6937358;28;20230;-74
2021/01/12 02:23:06;;;;;;;9.90;8.03;;;;;;;1.91;52.07;95677.38;6927147;28;20212;-76
2021/01/12 02:26:27;;;;;;;9.80;7.80;;;;;;;1.93;51.84;95652.81;6928754;28;20249;-74
2021/01/12 02:29:49;;;;;;;9.17;7.80;;;;;;;1.95;52.26;95653.59;6954095;28;20215;-74
2021/01/12 02:33:10;;;;;;;9.47;6.93;;;;;;;1.95;52.26;95653.59;6944942;28;20212;-74
2021/01/12 02:36:31;;;;;;;8.23;7.20;;;;;;;1.99;52.46;95643.81;6945717;28;20218;-74
2021/01/12 02:39:58;;;;;;;9.10;6.93;;;;;;;2.04;52.91;95639.19;6970341;28;20703;-74
2021/01/12 02:43:23;;;;;;;9.17;7.03;;;;;;;2.03;53.01;95640.09;6941393;28;20212;-74
2021/01/12 02:46:46;;;;;;;8.27;6.90;;;;;;;2.05;53.09;95633.03;6942678;28;20229;-74
2021/01/12 02:50:08;;;;;;;8.43;6.77;;;;;;;2.06;53.18;95635.56;6962585;28;20242;-74
2021/01/12 02:53:30;;;;;;;9.77;6.80;;;;;;;2.12;53.13;95627.41;6952013;28;20215;-74
2021/01/12 02:56:53;;;;;;;8.87;6.90;;;;;;;2.16;53.12;95617.63;6946552;28;20640;-74
2021/01/12 03:00:15;;;;;;;7.77;5.93;;;;;;;2.23;53.29;95619.00;6964083;28;20269;-74
2021/01/12 03:03:37;;;;;;;6.60;5.90;;;;;;;2.26;53.17;95616.25;6953051;28;20215;-74
2021/01/12 03:06:58;;;;;;;7.03;5.83;;;;;;;2.29;53.42;95615.22;6966051;28;20211;-76
2021/01/12 03:10:18;;;;;;;6.90;6.20;;;;;;;2.39;53.55;95617.31;6953836;28;20289;-76
2021/01/12 03:13:41;;;;;;;7.40;5.80;;;;;;;2.43;53.89;95618.00;6978421;28;20368;-76
2021/01/12 03:17:05;;;;;;;5.90;5.30;;;;;;;2.53;54.09;95613.97;6936331;28;20224;-74
2021/01/12 03:20:26;;;;;;;6.00;5.27;;;;;;;2.61;53.97;95593.47;6940483;28;20299;-74
2021/01/12 03:23:51;;;;;;;5.53;4.90;;;;;;;2.62;53.62;95597.75;6968228;28;20227;-74
2021/01/12 03:27:13;;;;;;;7.20;5.97;;;;;;;2.67;54.22;95592.25;6943217;28;20326;-74
2021/01/12 03:30:34;;;;;;;6.03;5.37;;;;;;;2.75;53.70;95593.56;6972524;28;20256;-74
2021/01/12 03:33:55;;;;;;;5.77;4.93;;;;;;;2.77;54.24;95596.94;6948917;28;20220;-74
2021/01/12 03:37:15;;;;;;;5.30;4.80;;;;;;;2.83;54.33;95599.25;6980864;28;20242;-74
2021/01/12 03:40:38;;;;;;;7.43;4.40;;;;;;;2.91;54.50;95598.84;6973278;28;20224;-74
2021/01/12 03:44:04;;;;;;;5.00;4.50;;;;;;;2.97;54.15;95596.72;6975407;28;20229;-74
2021/01/12 03:47:25;;;;;;;6.03;4.70;;;;;;;2.99;53.90;95592.25;6964181;28;20604;-74
2021/01/12 03:50:45;;;;;;;4.67;4.13;;;;;;;3.05;54.34;95590.25;6949143;28;20948;-74
2021/01/12 03:54:06;;;;;;;5.10;4.47;;;;;;;3.06;53.89;95577.06;6940581;28;20228;-74
2021/01/12 03:57:26;;;;;;;6.07;4.33;;;;;;;2.94;53.84;95573.31;6970422;28;20705;-74
2021/01/12 04:00:47;;;;;;;5.00;4.50;;;;;;;2.84;54.03;95573.88;6946561;28;20225;-74
2021/01/12 04:04:07;;;;;;;7.03;4.70;;;;;;;2.85;54.58;95579.06;6963852;28;20274;-74
2021/01/12 04:07:28;;;;;;;6.67;4.70;;;;;;;2.93;54.37;95578.63;6966718;28;20566;-74
2021/01/12 04:10:48;;;;;;;5.57;4.53;;;;;;;2.94;54.53;95577.69;6957816;28;20905;-74
2021/01/12 04:14:08;;;;;;;4.67;4.20;;;;;;;3.01;54.53;95572.06;6954747;28;20237;-74
2021/01/12 04:17:31;;;;;;;5.97;5.30;;;;;;;3.07;54.29;95557.72;6936654;28;20674;-74
2021/01/12 04:20:51;;;;;;;5.30;4.80;;;;;;;3.11;53.98;95563.69;6951202;28;20212;-73
2021/01/12 04:24:14;;;;;;;6.57;4.90;;;;;;;3.10;53.99;95548.84;6944099;28;20271;-75
2021/01/12 04:27:34;;;;;;;6.30;5.00;;;;;;;3.13;54.11;95551.31;6933425;28;20933;-74
2021/01/12 04:30:55;;;;;;;5.67;4.43;;;;;;;3.13;54.24;95536.41;6938286;28;20209;-74
2021/01/12 04:34:15;;;;;;;4.90;4.20;;;;;;;3.05;54.34;95530.75;6958888;28;20209;-74
2021/01/12 04:37:41;;;;;;;4.93;4.03;;;;;;;2.98;54.33;95535.47;6963585;28;20229;-74
2021/01/12 04:41:01;;;;;;;6.70;4.80;;;;;;;2.94;54.73;95533.09;6959195;28;20328;-74
2021/01/12 04:44:22;;;;;;;4.43;4.03;;;;;;;2.88;54.76;95539.53;6972645;28;20219;-74
2021/01/12 04:47:42;;;;;;;4.50;3.70;;;;;;;2.95;55.38;95537.44;6946590;28;20596;-74
2021/01/12 04:51:09;;;;;;;4.57;4.13;;;;;;;2.99;55.20;95529.31;6958653;28;20365;-74
2021/01/12 04:54:34;;;;;;;3.80;3.17;;;;;;;3.08;55.24;95524.47;6952237;28;20209;-74
2021/01/12 04:57:54;;;;;;;4.90;4.17;;;;;;;3.07;55.50;95526.25;6956414;28;20223;-74
2021/01/12 05:01:19;;;;;;;3.87;3.30;;;;;;;3.12;55.31;95518.16;6953811;28;20220;-74
2021/01/12 05:04:41;;;;;;;4.30;3.27;;;;;;;3.18;55.41;95513.38;6953822;28;20210;-74
2021/01/12 05:08:04;;;;;;;3.63;2.90;;;;;;;3.21;55.75;95510.59;6965301;28;20270;-75
2021/01/12 05:11:32;;;;;;;3.30;2.83;;;;;;;3.32;55.67;95502.94;6927997;28;20976;-75
2021/01/12 05:14:53;;;;;;;3.77;2.70;;;;;;;3.40;55.19;95503.38;6965538;28;20216;-76
2021/01/12 05:18:17;;;;;;;3.77;2.97;;;;;;;3.43;55.42;95484.81;6952187;28;20227;-76
2021/01/12 05:21:39;;;;;;;3.03;2.70;;;;;;;3.45;55.13;95496.09;6944171;28;20233;-76
2021/01/12 05:28:38;;;;;;;2.80;2.60;;;;;;;3.45;55.42;95488.22;6951370;28;20209;-76
2021/01/12 05:32:01;;;;;;;3.10;2.77;;;;;;;3.48;55.19;95479.31;6933506;28;20314;-75
2021/01/12 05:35:25;;;;;;;2.90;2.60;;;;;;;3.50;55.30;95482.69;6941865;28;20225;-75
2021/01/12 05:38:48;;;;;;;3.40;2.77;;;;;;;3.51;55.38;95475.66;6945016;28;20206;-76
2021/01/12 05:42:10;;;;;;;3.23;2.80;;;;;;;3.55;55.52;95487.69;6939415;28;20211;-75
2021/01/12 05:45:39;;;;;;;4.17;2.80;;;;;;;3.59;55.90;95486.56;6950005;28;20214;-75
2021/01/12 05:49:02;;;;;;;4.87;2.83;;;;;;;3.56;55.50;95487.59;6950312;28;20299;-76
2021/01/12 05:52:25;;;;;;;2.83;2.63;;;;;;;3.58;55.56;95484.88;6939575;28;20219;-75
2021/01/12 05:55:53;;;;;;;2.93;2.63;;;;;;;3.58;55.88;95490.97;6952458;28;20221;-74
2021/01/12 05:59:23;;;;;;;3.03;2.63;;;;;;;3.63;56.18;95488.06;6952398;28;20220;-74
2021/01/12 06:02:46;;;;;;;2.77;2.53;;;;;;;3.67;55.87;95489.63;6968816;28;20205;-74
2021/01/12 06:06:09;;;;;;;2.73;2.50;;;;;;;3.68;56.16;95472.91;6950033;28;20224;-75
2021/01/12 06:09:30;;;;;;;2.80;2.50;;;;;;;3.63;56.19;95478.41;6937196;28;20687;-74
2021/01/12 06:12:51;;;;;;;2.43;2.23;;;;;;;3.61;56.24;95487.34;6957544;28;20236;-74
2021/01/12 06:16:22;;;;;;;2.67;2.47;;;;;;;3.59;56.20;95470.81;6946487;28;20224;-74
2021/01/12 06:19:46;;;;;;;2.30;2.10;;;;;;;3.58;56.16;95466.50;6939839;28;20270;-74
2021/01/12 06:23:08;;;;;;;3.27;2.40;;;;;;;3.59;56.36;95469.03;6958777;28;20228;-74
2021/01/12 06:26:28;;;;;;;2.80;2.47;;;;;;;3.59;56.08;95466.41;6957575;28;20217;-74
2021/01/12 06:29:49;;;;;;;2.77;2.47;;;;;;;3.64;56.20;95466.97;6947360;28;20236;-74
2021/01/12 06:33:12;;;;;;;3.17;2.67;;;;;;;3.69;56.13;95459.69;6963727;28;20226;-74
2021/01/12 06:36:38;;;;;;;2.70;2.27;;;;;;;3.69;56.13;95462.31;6941805;28;20236;-74
2021/01/12 06:40:00;;;;;;;2.57;2.37;;;;;;;3.67;56.27;95463.34;6963921;28;20589;-74
2021/01/12 06:43:28;;;;;;;2.93;2.70;;;;;;;3.70;56.42;95456.13;6941946;28;20225;-74
2021/01/12 06:46:54;;;;;;;2.70;2.50;;;;;;;3.78;55.93;95466.16;6949644;28;20226;-74
2021/01/12 06:50:18;;;;;;;2.50;2.20;;;;;;;3.83;56.34;95454.47;6967320;28;20217;-75
2021/01/12 06:53:45;;;;;;;2.50;2.30;;;;;;;3.84;55.90;95461.41;6953198;28;20210;-75
2021/01/12 06:57:18;;;;;;;2.53;2.33;;;;;;;3.95;55.74;95454.66;6953707;28;20221;-75
2021/01/12 07:00:38;;;;;;;3.03;2.30;;;;;;;4.02;55.95;95456.84;6945919;28;20315;-75
2021/01/12 07:04:00;;;;;;;2.30;2.10;;;;;;;4.12;56.00;95452.75;6943583;28;20591;-75
2021/01/12 07:07:24;;;;;;;2.10;1.90;;;;;;;4.18;55.86;95449.72;6949901;28;20695;-75
2021/01/12 07:10:46;;;;;;;2.43;2.20;;;;;;;4.21;55.48;95446.91;6939361;28;20222;-75
2021/01/12 07:14:09;;;;;;;2.43;2.00;;;;;;;4.17;55.36;95447.19;6955526;28;20221;-75
2021/01/12 07:17:55;;;;;;;2.10;1.90;;;;;;;4.22;55.94;95439.88;6951083;28;20872;-74
2021/01/12 07:21:16;;;;;;;2.47;2.27;;;;;;;4.27;55.61;95424.69;6940298;28;20702;-75
2021/01/12 07:24:43;;;;;;;2.60;2.20;;;;;;;4.18;55.41;95418.16;6942235;28;20216;-75
2021/01/12 07:28:08;;;;;;;2.90;2.27;;;;;;;4.11;55.86;95427.38;6949913;28;20229;-75
2021/01/12 07:31:31;;;;;;;2.50;1.80;;;;;;;4.13;55.62;95428.13;6976119;28;20691;-75
2021/01/12 07:34:54;;;;;;;2.37;2.17;;;;;;;4.09;55.66;95426.63;6982586;28;20228;-75
2021/01/12 07:38:20;;;;;;;4.50;2.23;;;;;;;4.10;55.68;95438.84;6948311;28;20225;-75
2021/01/12 07:41:40;;;;;;;3.03;2.13;;;;;;;4.22;56.33;95447.75;6944879;28;20273;-74
2021/01/12 07:45:01;;;;;;;2.23;2.03;;;;;;;4.28;55.63;95442.97;6954156;28;20336;-75
2021/01/12 07:48:24;;;;;;;2.93;2.63;;;;;;;4.33;56.03;95432.16;6961423;28;20288;-73
2021/01/12 07:51:45;;;;;;;2.40;2.20;;;;;;;4.38;55.69;95435.34;6931530;28;20250;-74
2021/01/12 07:55:09;;;;;;;2.93;2.43;;;;;;;4.41;55.83;95429.91;6954284;28;20576;-74
2021/01/12 07:58:33;;;;;;;2.20;2.00;;;;;;;4.50;55.70;95425.88;6973877;28;20776;-75
2021/01/12 08:01:55;;;;;;;3.53;2.37;;;;;;;4.48;55.65;95427.72;6945105;28;20236;-76
2021/01/12 08:05:20;;;;;;;2.30;2.10;;;;;;;4.46;55.49;95417.34;6956648;28;20312;-74
2021/01/12 08:08:43;;;;;;;3.93;2.37;;;;;;;4.44;55.72;95428.88;6949999;28;20218;-74
2021/01/12 08:12:05;;;;;;;2.80;1.70;;;;;;;4.51;55.94;95436.28;6947193;28;20229;-74
2021/01/12 08:15:26;;;;;;;2.20;2.00;;;;;;;4.54;55.84;95436.09;6937638;28;20243;-74
2021/01/12 08:18:49;;;;;;;2.57;2.20;;;;;;;4.58;55.68;95427.06;6919329;28;20347;-75
2021/01/12 08:22:10;;;;;;;3.10;1.77;;;;;;;4.58;55.90;95424.44;6932640;28;20226;-76
2021/01/12 08:25:33;;;;;;;2.30;2.07;;;;;;;4.56;55.19;95423.72;6958394;28;20230;-75
2021/01/12 08:28:56;;;;;;;2.23;1.80;;;;;;;4.55;55.56;95432.53;6922119;28;20219;-75
2021/01/12 08:32:22;;;;;;;1.80;1.70;;;;;;;4.61;55.61;95426.03;6953167;28;20230;-76
2021/01/12 08:36:13;;;;;;;2.10;1.90;;;;;;;4.61;55.62;95424.25;6923775;28;20575;-77
2021/01/12 08:39:34;;;;;;;2.00;1.80;;;;;;;4.58;55.63;95421.81;6932863;28;20238;-76
2021/01/12 08:42:54;;;;;;;1.60;1.50;;;;;;;4.61;55.78;95426.91;6935154;28;20292;-75
2021/01/12 08:46:16;;;;;;;1.83;1.70;;;;;;;4.66;55.38;95413.44;6936252;28;20599;-75
2021/01/12 08:49:36;;;;;;;1.63;1.53;;;;;;;4.72;55.79;95407.81;6940842;28;20219;-76
2021/01/12 08:52:59;;;;;;;1.77;1.57;;;;;;;4.72;55.09;95394.66;6922447;28;20321;-77
2021/01/12 08:56:24;;;;;;;2.20;1.53;;;;;;;4.66;55.54;95392.41;6926324;28;20230;-75
2021/01/12 08:59:46;;;;;;;1.50;1.40;;;;;;;4.69;55.36;95398.31;6919353;28;20291;-76
2021/01/12 09:03:08;;;;;;;2.00;1.60;;;;;;;4.72;55.54;95392.88;6924035;28;20298;-75
2021/01/12 09:06:28;;;;;;;2.10;1.80;;;;;;;4.75;55.19;95395.28;6924100;28;20684;-75
2021/01/12 09:09:52;;;;;;;2.80;1.70;;;;;;;4.81;55.58;95393.22;6923716;28;20231;-75
2021/01/12 09:13:13;;;;;;;1.80;1.70;;;;;;;4.83;55.38;95381.63;6918856;28;20646;-75
2021/01/12 09:16:36;;;;;;;1.83;1.63;;;;;;;4.85;55.05;95371.88;6923521;28;20224;-75
2021/01/12 09:19:57;;;;;;;2.00;1.90;;;;;;;4.82;55.37;95372.09;6921438;28;20218;-75
2021/01/12 09:23:17;;;;;;;1.70;1.53;;;;;;;4.78;55.60;95367.13;6921882;28;20234;-74
2021/01/12 09:26:40;;;;;;;5.40;2.37;;;;;;;4.78;55.57;95370.56;6929946;28;20315;-74
2021/01/12 09:30:00;;;;;;;4.30;1.70;;;;;;;4.77;55.84;95373.31;6944632;28;20223;-73
2021/01/12 09:33:24;;;;;;;2.70;1.97;;;;;;;4.82;55.81;95379.13;6980598;28;20275;-69
2021/01/12 09:36:45;;;;;;;1.60;1.50;;;;;;;4.88;55.79;95370.84;6931882;28;20215;-69
2021/01/12 09:40:06;;;;;;;1.73;1.63;;;;;;;4.95;55.66;95365.06;6920820;28;20223;-70
2021/01/12 09:43:26;;;;;;;1.77;1.67;;;;;;;4.97;56.14;95370.25;6919431;28;20303;-70
2021/01/12 09:46:49;;;;;;;3.90;1.53;;;;;;;5.03;55.84;95372.47;6931050;28;20227;-70
2021/01/12 09:50:10;;;;;;;2.27;1.40;;;;;;;5.03;55.89;95364.59;6938332;28;20762;-70
2021/01/12 09:53:31;;;;;;;1.30;1.20;;;;;;;5.09;55.94;95359.75;6950640;28;20220;-71
2021/01/12 09:56:54;;;;;;;1.63;1.40;;;;;;;5.21;56.03;95357.25;6934886;28;20272;-70
2021/01/12 10:00:15;;;;;;;1.30;1.20;;;;;;;5.19;56.42;95342.41;6975543;28;20261;-71
2021/01/12 10:03:36;;;;;;;1.30;1.20;;;;;;;5.18;56.68;95350.41;6977718;28;20224;-69
2021/01/12 10:07:00;;;;;;;1.30;1.20;;;;;;;5.29;56.98;95349.69;6972045;28;20221;-69
2021/01/12 10:10:20;;;;;;;1.80;1.03;;;;;;;5.24;57.10;95347.34;6979082;28;20265;-70
2021/01/12 10:13:44;;;;;;;1.00;1.00;;;;;;;5.28;57.59;95346.19;6950381;28;20218;-69
2021/01/12 10:17:04;;;;;;;0.83;0.83;;;;;;;5.46;57.92;95352.88;6962260;28;20811;-70
2021/01/12 10:20:25;;;;;;;0.80;0.80;;;;;;;5.45;58.33;95342.44;6957104;28;20781;-69
2021/01/12 10:23:45;;;;;;;0.70;0.70;;;;;;;5.35;58.72;95338.75;6930788;28;20211;-69
2021/01/12 10:27:07;;;;;;;0.90;0.90;;;;;;;5.36;59.33;95343.91;6910805;28;20267;-68
2021/01/12 10:30:28;;;;;;;0.73;0.73;;;;;;;5.36;59.75;95333.38;6951490;28;20601;-70
2021/01/12 10:33:52;;;;;;;0.70;0.70;;;;;;;5.39;59.90;95340.22;6975035;28;20696;-70
2021/01/12 10:37:15;;;;;;;0.80;0.80;;;;;;;5.29;60.50;95339.16;6941985;28;20277;-70
2021/01/12 10:40:35;;;;;;;0.90;0.90;;;;;;;5.23;61.41;95321.97;6936138;28;20210;-70
2021/01/12 10:43:58;;;;;;;0.60;0.60;;;;;;;5.26;61.34;95316.53;6935352;28;20215;-70
2021/01/12 10:47:19;;;;;;;0.80;0.80;;;;;;;5.26;61.84;95324.41;6929701;28;20235;-70
2021/01/12 10:50:39;;;;;;;0.70;0.70;;;;;;;5.30;62.37;95317.16;6925342;28;20210;-70
2021/01/12 10:54:00;;;;;;;0.60;0.60;;;;;;;5.35;62.27;95310.63;6952335;28;20296;-70
2021/01/12 10:57:20;;;;;;;0.70;0.70;;;;;;;5.34;62.88;95301.03;6952078;28;20314;-70
2021/01/12 11:00:41;;;;;;;0.80;0.80;;;;;;;5.48;62.47;95282.50;6951433;28;20602;-71
2021/01/12 11:04:01;;;;;;;0.70;0.70;;;;;;;5.45;62.81;95289.78;6947691;28;20225;-70
2021/01/12 11:07:22;;;;;;;0.60;0.60;;;;;;;5.48;62.42;95273.78;6949549;28;20253;-71
2021/01/12 11:10:43;;;;;;;0.93;0.80;;;;;;;5.44;62.49;95272.28;6928222;28;20211;-70
2021/01/12 11:14:06;;;;;;;0.70;0.70;;;;;;;5.45;62.81;95264.28;6956124;28;20215;-70
2021/01/12 11:17:27;;;;;;;1.10;1.10;;;;;;;5.53;62.88;95251.41;6943412;28;20230;-69
2021/01/12 11:20:50;;;;;;;0.80;0.80;;;;;;;5.54;62.90;95247.00;6953833;28;20249;-70
2021/01/12 11:24:13;;;;;;;0.80;0.80;;;;;;;5.63;62.86;95237.63;6943894;28;20657;-70
2021/01/12 11:27:34;;;;;;;0.70;0.70;;;;;;;5.67;62.57;95218.88;6953428;28;20734;-70
2021/01/12 11:30:54;;;;;;;0.70;0.70;;;;;;;5.70;62.47;95228.34;6954691;28;20269;-70
2021/01/12 11:34:16;;;;;;;0.70;0.70;;;;;;;5.66;62.73;95213.69;6975254;28;20219;-70
2021/01/12 11:37:36;;;;;;;0.80;0.77;;;;;;;5.67;62.93;95216.25;6963822;28;20268;-70
2021/01/12 11:40:56;;;;;;;0.97;0.90;;;;;;;5.70;62.89;95226.56;6975582;28;20310;-70
2021/01/12 11:44:18;;;;;;;0.70;0.70;;;;;;;5.70;63.19;95218.66;6948838;28;20829;-70
2021/01/12 11:47:39;;;;;;;0.70;0.70;;;;;;;5.58;63.75;95224.78;6939819;28;20231;-70
2021/01/12 11:51:03;;;;;;;0.70;0.70;;;;;;;5.59;63.62;95214.13;6972589;28;20230;-70
2021/01/12 11:54:24;;;;;;;1.03;0.73;;;;;;;5.65;63.82;95214.66;6942300;28;20223;-69
2021/01/12 11:57:44;;;;;;;0.60;0.60;;;;;;;5.57;63.93;95207.28;6936420;28;20217;-70
2021/01/12 12:01:04;;;;;;;0.60;0.60;;;;;;;5.60;64.10;95192.09;6945809;28;20226;-71
2021/01/12 12:04:25;;;;;;;0.73;0.73;;;;;;;5.49;64.19;95191.16;6939656;28;20231;-71
2021/01/12 12:07:50;;;;;;;0.60;0.60;;;;;;;5.34;65.03;95189.59;6966431;28;20636;-70
2021/01/12 12:11:11;;;;;;;0.80;0.80;;;;;;;5.36;65.41;95183.28;6949197;28;20764;-70
2021/01/12 12:14:32;;;;;;;0.80;0.80;;;;;;;5.33;65.74;95186.13;6943690;28;20224;-70
2021/01/12 12:17:52;;;;;;;0.60;0.60;;;;;;;5.31;66.03;95172.25;6958956;28;20228;-70
2021/01/12 12:21:14;;;;;;;0.73;0.73;;;;;;;5.27;66.14;95183.09;6911409;28;20282;-70
2021/01/12 12:24:34;;;;;;;0.50;0.50;;;;;;;5.18;66.58;95166.16;6939717;28;20222;-69
2021/01/12 12:27:54;;;;;;;0.70;0.70;;;;;;;5.07;66.67;95172.16;6941651;28;20242;-70
2021/01/12 12:31:15;;;;;;;0.57;0.57;;;;;;;4.94;66.85;95170.44;6948024;28;20219;-69
2021/01/12 12:34:35;;;;;;;0.63;0.63;;;;;;;4.91;67.82;95163.63;6904839;28;20261;-69
2021/01/12 12:37:56;;;;;;;0.80;0.80;;;;;;;4.88;67.75;95179.59;6922154;28;20243;-70
2021/01/12 12:41:17;;;;;;;0.57;0.57;;;;;;;4.93;67.83;95171.41;6941008;28;20219;-70
2021/01/12 12:44:40;;;;;;;0.73;0.70;;;;;;;4.86;67.86;95159.59;6921985;28;20206;-72
2021/01/12 12:48:03;;;;;;;0.60;0.60;;;;;;;4.77;68.15;95158.44;6938804;28;20235;-70
2021/01/12 12:51:26;;;;;;;0.77;0.77;;;;;;;4.63;68.44;95156.72;6927317;28;20208;-70
2021/01/12 12:54:47;;;;;;;0.60;0.60;;;;;;;4.59;68.70;95159.66;6931896;28;20256;-70
2021/01/12 12:58:07;;;;;;;0.67;0.67;;;;;;;4.67;69.14;95146.88;6937200;28;20224;-69
2021/01/12 13:01:28;;;;;;;1.37;0.70;;;;;;;4.71;68.80;95136.03;6909851;28;20227;-70
2021/01/12 13:04:48;;;;;;;0.70;0.70;;;;;;;4.78;68.06;95146.16;6957055;28;20198;-71
2021/01/12 13:08:11;;;;;;;0.60;0.60;;;;;;;4.80;68.01;95138.97;6940048;28;20219;-70
2021/01/12 13:11:33;;;;;;;0.73;0.73;;;;;;;4.75;68.20;95140.13;6947461;28;20230;-70
2021/01/12 13:14:56;;;;;;;0.60;0.60;;;;;;;4.54;68.70;95138.09;6937257;28;20229;-70
2021/01/12 13:18:25;;;;;;;0.67;0.67;;;;;;;4.48;69.28;95133.25;6951236;28;20231;-71
2021/01/12 13:21:49;;;;;;;0.77;0.77;;;;;;;4.38;68.82;95130.38;6931521;28;20206;-70
2021/01/12 13:25:12;;;;;;;0.63;0.63;;;;;;;4.26;69.67;95118.91;6971973;28;20575;-70
2021/01/12 13:28:33;;;;;;;0.80;0.80;;;;;;;4.33;70.63;95120.19;6946079;28;20242;-70
2021/01/12 13:31:55;;;;;;;0.60;0.60;;;;;;;4.39;70.91;95118.94;6948936;28;20233;-70
2021/01/12 13:35:19;;;;;;;0.60;0.60;;;;;;;4.43;70.43;95114.31;6963181;28;20300;-70
2021/01/12 13:38:39;;;;;;;0.50;0.50;;;;;;;4.43;70.15;95119.56;6944059;28;20217;-70
2021/01/12 13:41:59;;;;;;;0.60;0.60;;;;;;;4.41;70.06;95121.47;6940871;28;20347;-70
2021/01/12 13:45:21;;;;;;;0.60;0.60;;;;;;;4.35;70.38;95112.19;6962344;28;20799;-70
2021/01/12 13:48:42;;;;;;;0.70;0.70;;;;;;;4.38;70.54;95113.75;6937337;28;20230;-70
2021/01/12 13:52:03;;;;;;;0.50;0.50;;;;;;;4.29;70.90;95107.34;6950290;28;20357;-70
2021/01/12 13:55:24;;;;;;;0.63;0.63;;;;;;;4.33;71.06;95106.19;6968544;28;20720;-71
2021/01/12 13:58:44;;;;;;;0.63;0.63;;;;;;;4.38;71.71;95096.22;6936957;28;20292;-71
2021/01/12 14:02:08;;;;;;;0.50;0.50;;;;;;;4.42;71.13;95100.34;6956900;28;20231;-72
2021/01/12 14:05:31;;;;;;;0.50;0.50;;;;;;;4.45;71.17;95102.75;6959174;28;20748;-72
2021/01/12 14:08:52;;;;;;;0.80;0.80;;;;;;;4.53;71.43;95100.44;6958113;28;20696;-72
2021/01/12 14:12:18;;;;;;;0.60;0.60;;;;;;;4.47;70.65;95116.66;6947681;28;20228;-72
2021/01/12 14:15:41;;;;;;;0.70;0.70;;;;;;;4.51;70.77;95104.97;6937118;28;20683;-71
2021/01/12 14:19:01;;;;;;;0.70;0.70;;;;;;;4.57;70.86;95101.94;6945768;28;20221;-73
2021/01/12 14:22:25;;;;;;;0.70;0.70;;;;;;;4.55;70.68;95093.28;6925478;28;20207;-72
2021/01/12 14:25:47;;;;;;;0.60;0.60;;;;;;;4.54;70.84;95090.75;6950378;28;20240;-70
2021/01/12 14:29:08;;;;;;;0.70;0.70;;;;;;;4.49;70.80;95101.59;6960112;28;20305;-71
2021/01/12 14:32:29;;;;;;;0.60;0.60;;;;;;;4.59;70.92;95104.44;6958836;28;20210;-71
2021/01/12 14:35:49;;;;;;;0.70;0.70;;;;;;;4.64;70.65;95087.41;6945256;28;20206;-70
2021/01/12 14:39:26;;;;;;;0.50;0.50;;;;;;;4.72;70.32;95093.00;6975786;28;20201;-70
2021/01/12 14:42:48;;;;;;;0.60;0.60;;;;;;;4.71;70.54;95103.63;6929999;28;20272;-66
2021/01/12 14:46:12;;;;;;;0.63;0.63;;;;;;;4.74;70.52;95104.25;6950129;28;20674;-69
2021/01/12 14:49:32;;;;;;;0.63;0.63;;;;;;;4.76;70.68;95106.78;6959498;28;20619;-71
2021/01/12 14:52:55;;;;;;;0.60;0.60;;;;;;;4.72;70.55;95097.41;6954940;28;20223;-71
2021/01/12 14:56:15;;;;;;;0.70;0.70;;;;;;;4.77;70.63;95086.59;6950237;28;20222;-71
2021/01/12 14:59:38;;;;;;;0.60;0.60;;;;;;;4.79;70.80;95093.41;6959003;28;20301;-71
2021/01/12 15:02:59;;;;;;;0.77;0.77;;;;;;;4.78;70.33;95096.16;6966138;28;20206;-71
2021/01/12 15:06:19;;;;;;;1.07;0.70;;;;;;;4.75;70.31;95090.16;6948151;28;20218;-73
2021/01/12 15:09:40;;;;;;;0.67;0.67;;;;;;;4.66;70.18;95085.53;6957547;28;20606;-71
2021/01/12 15:13:00;;;;;;;0.70;0.70;;;;;;;4.65;70.21;95088.25;6975750;28;20214;-71
2021/01/12 15:16:21;;;;;;;0.90;0.90;;;;;;;4.61;70.99;95081.53;6952557;28;20301;-70
2021/01/12 15:19:41;;;;;;;1.20;1.20;;;;;;;4.45;71.15;95076.47;6959524;28;20245;-69
2021/01/12 15:23:01;;;;;;;0.60;0.60;;;;;;;4.57;71.24;95070.38;6951089;28;20218;-70
2021/01/12 15:26:24;;;;;;;0.80;0.80;;;;;;;4.62;71.16;95065.66;6972044;28;20227;-70
2021/01/12 15:29:47;;;;;;;0.70;0.70;;;;;;;4.59;71.58;95075.50;6935753;28;20761;-70
2021/01/12 15:33:09;;;;;;;7.07;4.67;;;;;;;4.57;71.33;95075.66;6955412;28;20707;-69
2021/01/12 15:36:31;;;;;;;0.80;0.80;;;;;;;4.63;71.28;95080.47;6980142;28;20778;-70
2021/01/12 15:39:51;;;;;;;0.67;0.67;;;;;;;4.71;71.17;95070.28;6957021;28;20709;-68
2021/01/12 15:43:12;;;;;;;0.77;0.77;;;;;;;4.74;71.35;95084.97;6952545;28;20218;-69
2021/01/12 15:46:39;;;;;;;0.80;0.80;;;;;;;5.23;74.17;95092.94;6944314;28;20219;-68
2021/01/12 15:49:59;;;;;;;1.00;1.00;;;;;;;5.90;72.88;95090.78;6961901;28;20218;-68
2021/01/12 15:53:19;;;;;;;0.83;0.80;;;;;;;6.32;70.71;95079.72;6974785;28;20233;-68
2021/01/12 15:56:40;;;;;;;0.60;0.60;;;;;;;6.98;68.15;95079.97;6942405;28;20214;-68
2021/01/12 16:00:01;;;;;;;1.83;0.60;;;;;;;6.96;65.64;95085.34;6980000;28;20790;-68
2021/01/12 16:03:22;;;;;;;0.70;0.70;;;;;;;6.72;64.96;95093.38;6942096;28;20617;-70